SZT weather

CLOSED San Cristobal de las Casas Airport
San Cristobal de las Casas, Chiapas, Mexico

Public forecast

Using degrees Celsius for public forecast. Weather courtesy of forecast.io.

Closest aviation weather report (METAR) to San Cristobal de las Casas Airport

Closest report is Angel Albino Corzo International Airport, 29.3 nm (54.3 km) WSW. Retrieved 2020/02/22 18:44 UTC (1 hour ago):

MMTG 221844Z 33014KT 10SM SCT030 SCT080 27/16 A3014 RMK 8/530

Closest aviation forecast (TAF) to San Cristobal de las Casas Airport

Closest forecast is Angel Albino Corzo International Airport, 29.3 nm (54.3 km) WSW. Retrieved 2020/02/22 18:12 UTC (2 hours ago):

TAF MMTG 221611Z 2218/2318 33015KT P6SM SCT015 BKN070 BECMG 2220/2221 32015G25KT BKN015 OVC070 TEMPO 2221/2301 6SM -RA FM230200 32015KT P6SM BKN020 OVC070 BECMG 2307/2308 32010KT FM231400 34006KT 6SM HZ BKN015 BKN070